sensor_id;sensor_type;location;lat;lon;timestamp;temperature;humidity
53498;DHT22;39382;47.168;16.008;2023-04-03T00:01:28;4.60;95.50
53498;DHT22;39382;47.168;16.008;2023-04-03T00:03:54;4.70;95.10
53498;DHT22;39382;47.168;16.008;2023-04-03T00:06:20;4.70;95.10
53498;DHT22;39382;47.168;16.008;2023-04-03T00:08:46;4.70;94.90
53498;DHT22;39382;47.168;16.008;2023-04-03T00:11:11;4.70;94.70
53498;DHT22;39382;47.168;16.008;2023-04-03T00:13:38;4.70;94.40
53498;DHT22;39382;47.168;16.008;2023-04-03T00:16:05;4.80;94.20
53498;DHT22;39382;47.168;16.008;2023-04-03T00:18:31;4.70;93.80
53498;DHT22;39382;47.168;16.008;2023-04-03T00:20:57;4.80;93.70
53498;DHT22;39382;47.168;16.008;2023-04-03T00:23:22;4.80;93.50
53498;DHT22;39382;47.168;16.008;2023-04-03T00:25:49;4.80;93.40
53498;DHT22;39382;47.168;16.008;2023-04-03T00:28:15;4.80;93.50
53498;DHT22;39382;47.168;16.008;2023-04-03T00:30:40;4.80;93.40
53498;DHT22;39382;47.168;16.008;2023-04-03T00:33:06;4.80;93.20
53498;DHT22;39382;47.168;16.008;2023-04-03T00:35:33;4.80;93.30
53498;DHT22;39382;47.168;16.008;2023-04-03T00:37:59;4.80;93.20
53498;DHT22;39382;47.168;16.008;2023-04-03T00:40:26;4.80;93.10
53498;DHT22;39382;47.168;16.008;2023-04-03T00:42:57;4.80;92.90
53498;DHT22;39382;47.168;16.008;2023-04-03T00:45:37;4.80;93.10
53498;DHT22;39382;47.168;16.008;2023-04-03T00:48:06;4.80;93.30
53498;DHT22;39382;47.168;16.008;2023-04-03T00:50:35;4.90;92.70
53498;DHT22;39382;47.168;16.008;2023-04-03T00:53:02;4.90;92.70
53498;DHT22;39382;47.168;16.008;2023-04-03T00:55:29;4.90;93.00
53498;DHT22;39382;47.168;16.008;2023-04-03T00:57:56;4.90;92.80
53498;DHT22;39382;47.168;16.008;2023-04-03T01:00:23;4.90;92.50
53498;DHT22;39382;47.168;16.008;2023-04-03T01:02:50;4.90;92.60
53498;DHT22;39382;47.168;16.008;2023-04-03T01:05:17;4.90;92.50
53498;DHT22;39382;47.168;16.008;2023-04-03T01:07:45;4.90;92.40
53498;DHT22;39382;47.168;16.008;2023-04-03T01:10:13;4.90;92.00
53498;DHT22;39382;47.168;16.008;2023-04-03T01:12:42;4.90;92.10
53498;DHT22;39382;47.168;16.008;2023-04-03T01:15:12;5.00;91.80
53498;DHT22;39382;47.168;16.008;2023-04-03T01:17:58;4.90;91.50
53498;DHT22;39382;47.168;16.008;2023-04-03T01:23:25;4.90;91.40
53498;DHT22;39382;47.168;16.008;2023-04-03T01:25:55;5.00;91.20
53498;DHT22;39382;47.168;16.008;2023-04-03T01:28:28;5.00;91.20
53498;DHT22;39382;47.168;16.008;2023-04-03T01:31:03;5.00;91.40
53498;DHT22;39382;47.168;16.008;2023-04-03T01:33:32;5.00;91.10
53498;DHT22;39382;47.168;16.008;2023-04-03T01:35:58;5.00;91.10
53498;DHT22;39382;47.168;16.008;2023-04-03T01:38:24;5.00;91.10
53498;DHT22;39382;47.168;16.008;2023-04-03T01:40:49;5.00;90.60
53498;DHT22;39382;47.168;16.008;2023-04-03T01:43:15;5.00;90.80
53498;DHT22;39382;47.168;16.008;2023-04-03T01:45:41;5.00;91.20
53498;DHT22;39382;47.168;16.008;2023-04-03T01:48:06;5.10;91.00
53498;DHT22;39382;47.168;16.008;2023-04-03T01:50:32;5.10;90.40
53498;DHT22;39382;47.168;16.008;2023-04-03T01:52:58;5.10;90.80
53498;DHT22;39382;47.168;16.008;2023-04-03T01:55:23;5.10;90.60
53498;DHT22;39382;47.168;16.008;2023-04-03T01:57:49;5.10;90.60
53498;DHT22;39382;47.168;16.008;2023-04-03T02:00:15;5.10;90.70
53498;DHT22;39382;47.168;16.008;2023-04-03T02:02:41;5.10;90.40
53498;DHT22;39382;47.168;16.008;2023-04-03T02:05:07;5.10;90.50
53498;DHT22;39382;47.168;16.008;2023-04-03T02:07:33;5.10;90.40
53498;DHT22;39382;47.168;16.008;2023-04-03T02:09:59;5.10;90.50
53498;DHT22;39382;47.168;16.008;2023-04-03T02:12:24;5.10;90.50
53498;DHT22;39382;47.168;16.008;2023-04-03T02:14:50;5.10;91.00
53498;DHT22;39382;47.168;16.008;2023-04-03T02:17:16;5.20;90.50
53498;DHT22;39382;47.168;16.008;2023-04-03T02:19:41;5.10;90.40
53498;DHT22;39382;47.168;16.008;2023-04-03T02:22:07;5.10;90.20
53498;DHT22;39382;47.168;16.008;2023-04-03T02:24:33;5.10;90.40
53498;DHT22;39382;47.168;16.008;2023-04-03T02:26:59;5.10;90.40
53498;DHT22;39382;47.168;16.008;2023-04-03T02:29:25;5.10;90.30
53498;DHT22;39382;47.168;16.008;2023-04-03T02:31:51;5.10;90.40
53498;DHT22;39382;47.168;16.008;2023-04-03T02:34:17;5.20;90.30
53498;DHT22;39382;47.168;16.008;2023-04-03T02:36:43;5.10;90.30
53498;DHT22;39382;47.168;16.008;2023-04-03T02:39:09;5.20;90.40
53498;DHT22;39382;47.168;16.008;2023-04-03T02:41:34;5.20;90.40
53498;DHT22;39382;47.168;16.008;2023-04-03T02:44:01;5.20;90.70
53498;DHT22;39382;47.168;16.008;2023-04-03T02:46:27;5.20;90.40
53498;DHT22;39382;47.168;16.008;2023-04-03T02:48:53;5.10;90.60
53498;DHT22;39382;47.168;16.008;2023-04-03T02:51:18;5.10;90.50
53498;DHT22;39382;47.168;16.008;2023-04-03T02:53:44;5.10;90.80
53498;DHT22;39382;47.168;16.008;2023-04-03T02:56:09;5.10;90.40
53498;DHT22;39382;47.168;16.008;2023-04-03T02:58:35;5.10;90.60
53498;DHT22;39382;47.168;16.008;2023-04-03T03:01:01;5.10;90.20
53498;DHT22;39382;47.168;16.008;2023-04-03T03:03:27;5.20;90.30
53498;DHT22;39382;47.168;16.008;2023-04-03T03:06:22;5.10;90.40
53498;DHT22;39382;47.168;16.008;2023-04-03T03:08:48;5.10;90.70
53498;DHT22;39382;47.168;16.008;2023-04-03T03:11:13;5.10;90.50
53498;DHT22;39382;47.168;16.008;2023-04-03T03:13:39;5.10;90.80
53498;DHT22;39382;47.168;16.008;2023-04-03T03:16:05;5.10;90.70
53498;DHT22;39382;47.168;16.008;2023-04-03T03:18:31;5.10;91.10
53498;DHT22;39382;47.168;16.008;2023-04-03T03:20:58;5.10;91.30
53498;DHT22;39382;47.168;16.008;2023-04-03T03:23:25;5.10;90.90
53498;DHT22;39382;47.168;16.008;2023-04-03T03:26:10;5.10;91.10
53498;DHT22;39382;47.168;16.008;2023-04-03T03:28:38;5.10;91.20
53498;DHT22;39382;47.168;16.008;2023-04-03T03:31:04;5.10;91.10
53498;DHT22;39382;47.168;16.008;2023-04-03T03:33:30;5.10;91.10
53498;DHT22;39382;47.168;16.008;2023-04-03T03:35:56;5.10;91.00
53498;DHT22;39382;47.168;16.008;2023-04-03T03:38:23;5.10;91.00
53498;DHT22;39382;47.168;16.008;2023-04-03T03:40:49;5.20;90.80
53498;DHT22;39382;47.168;16.008;2023-04-03T03:43:16;5.20;90.50
53498;DHT22;39382;47.168;16.008;2023-04-03T03:45:42;5.10;90.20
53498;DHT22;39382;47.168;16.008;2023-04-03T03:48:07;5.10;90.50
53498;DHT22;39382;47.168;16.008;2023-04-03T03:50:33;5.10;90.50
53498;DHT22;39382;47.168;16.008;2023-04-03T03:52:59;5.20;90.50
53498;DHT22;39382;47.168;16.008;2023-04-03T03:55:25;5.20;90.50
53498;DHT22;39382;47.168;16.008;2023-04-03T03:57:51;5.20;90.30
53498;DHT22;39382;47.168;16.008;2023-04-03T04:00:17;5.20;90.40
53498;DHT22;39382;47.168;16.008;2023-04-03T04:02:43;5.20;90.60
53498;DHT22;39382;47.168;16.008;2023-04-03T04:05:09;5.20;90.30
53498;DHT22;39382;47.168;16.008;2023-04-03T04:07:35;5.10;90.40
53498;DHT22;39382;47.168;16.008;2023-04-03T04:10:00;5.20;90.50
53498;DHT22;39382;47.168;16.008;2023-04-03T04:12:26;5.10;90.60
53498;DHT22;39382;47.168;16.008;2023-04-03T04:14:52;5.10;90.60
53498;DHT22;39382;47.168;16.008;2023-04-03T04:17:17;5.20;90.80
53498;DHT22;39382;47.168;16.008;2023-04-03T04:19:43;5.20;90.80
53498;DHT22;39382;47.168;16.008;2023-04-03T04:22:09;5.10;91.00
53498;DHT22;39382;47.168;16.008;2023-04-03T04:24:34;5.10;90.60
53498;DHT22;39382;47.168;16.008;2023-04-03T04:27:00;5.10;90.90
53498;DHT22;39382;47.168;16.008;2023-04-03T04:29:25;5.10;90.70
53498;DHT22;39382;47.168;16.008;2023-04-03T04:31:51;5.10;90.60
53498;DHT22;39382;47.168;16.008;2023-04-03T04:34:17;5.10;90.60
53498;DHT22;39382;47.168;16.008;2023-04-03T04:36:42;5.10;90.50
53498;DHT22;39382;47.168;16.008;2023-04-03T04:39:08;5.10;90.70
53498;DHT22;39382;47.168;16.008;2023-04-03T04:41:34;5.10;90.60
53498;DHT22;39382;47.168;16.008;2023-04-03T04:44:00;5.10;90.30
53498;DHT22;39382;47.168;16.008;2023-04-03T04:46:25;5.10;90.40
53498;DHT22;39382;47.168;16.008;2023-04-03T04:48:51;5.10;90.50
53498;DHT22;39382;47.168;16.008;2023-04-03T04:51:17;5.10;90.10
53498;DHT22;39382;47.168;16.008;2023-04-03T04:53:43;5.10;90.40
53498;DHT22;39382;47.168;16.008;2023-04-03T04:56:08;5.10;90.30
53498;DHT22;39382;47.168;16.008;2023-04-03T04:58:34;5.10;90.50
53498;DHT22;39382;47.168;16.008;2023-04-03T05:01:06;5.10;89.80
53498;DHT22;39382;47.168;16.008;2023-04-03T05:03:32;5.30;90.20
53498;DHT22;39382;47.168;16.008;2023-04-03T05:05:58;5.20;89.10
53498;DHT22;39382;47.168;16.008;2023-04-03T05:08:25;5.20;89.10
53498;DHT22;39382;47.168;16.008;2023-04-03T05:10:50;5.20;89.30
53498;DHT22;39382;47.168;16.008;2023-04-03T05:13:16;5.20;88.80
53498;DHT22;39382;47.168;16.008;2023-04-03T05:15:42;5.20;89.00
53498;DHT22;39382;47.168;16.008;2023-04-03T05:18:07;5.20;89.10
53498;DHT22;39382;47.168;16.008;2023-04-03T05:20:33;5.20;89.50
53498;DHT22;39382;47.168;16.008;2023-04-03T05:23:00;5.20;89.60
53498;DHT22;39382;47.168;16.008;2023-04-03T05:25:26;5.20;90.00
53498;DHT22;39382;47.168;16.008;2023-04-03T05:27:52;5.30;90.00
53498;DHT22;39382;47.168;16.008;2023-04-03T05:30:18;5.30;90.00
53498;DHT22;39382;47.168;16.008;2023-04-03T05:32:43;5.20;90.30
53498;DHT22;39382;47.168;16.008;2023-04-03T05:35:10;5.30;90.40
53498;DHT22;39382;47.168;16.008;2023-04-03T05:37:36;5.30;90.40
53498;DHT22;39382;47.168;16.008;2023-04-03T05:40:06;5.30;90.70
53498;DHT22;39382;47.168;16.008;2023-04-03T05:42:32;5.40;90.60
53498;DHT22;39382;47.168;16.008;2023-04-03T05:44:58;5.40;91.00
53498;DHT22;39382;47.168;16.008;2023-04-03T05:47:24;5.40;90.90
53498;DHT22;39382;47.168;16.008;2023-04-03T05:49:49;5.40;90.80
53498;DHT22;39382;47.168;16.008;2023-04-03T05:54:44;5.40;91.00
53498;DHT22;39382;47.168;16.008;2023-04-03T05:57:12;5.40;90.50
53498;DHT22;39382;47.168;16.008;2023-04-03T05:59:37;5.40;90.90
53498;DHT22;39382;47.168;16.008;2023-04-03T06:02:03;5.40;90.80
53498;DHT22;39382;47.168;16.008;2023-04-03T06:04:28;5.40;90.90
53498;DHT22;39382;47.168;16.008;2023-04-03T06:06:56;5.40;90.20
53498;DHT22;39382;47.168;16.008;2023-04-03T06:09:25;5.40;90.20
53498;DHT22;39382;47.168;16.008;2023-04-03T06:11:52;5.40;90.30
53498;DHT22;39382;47.168;16.008;2023-04-03T06:14:18;5.40;90.10
53498;DHT22;39382;47.168;16.008;2023-04-03T06:16:44;5.40;90.60
53498;DHT22;39382;47.168;16.008;2023-04-03T06:19:11;5.40;90.80
53498;DHT22;39382;47.168;16.008;2023-04-03T06:21:37;5.40;90.80
53498;DHT22;39382;47.168;16.008;2023-04-03T06:24:04;5.50;90.90
53498;DHT22;39382;47.168;16.008;2023-04-03T06:26:29;5.70;91.00
53498;DHT22;39382;47.168;16.008;2023-04-03T06:28:55;5.80;90.70
53498;DHT22;39382;47.168;16.008;2023-04-03T06:31:21;5.80;90.20
53498;DHT22;39382;47.168;16.008;2023-04-03T06:33:47;5.70;89.70
53498;DHT22;39382;47.168;16.008;2023-04-03T06:36:13;5.80;90.30
53498;DHT22;39382;47.168;16.008;2023-04-03T06:38:39;5.80;90.00
53498;DHT22;39382;47.168;16.008;2023-04-03T06:41:05;5.80;89.40
53498;DHT22;39382;47.168;16.008;2023-04-03T06:43:30;5.90;89.90
53498;DHT22;39382;47.168;16.008;2023-04-03T06:45:57;6.00;89.50
53498;DHT22;39382;47.168;16.008;2023-04-03T06:48:22;6.20;89.60
53498;DHT22;39382;47.168;16.008;2023-04-03T06:50:48;6.20;87.80
53498;DHT22;39382;47.168;16.008;2023-04-03T06:53:14;6.30;87.70
53498;DHT22;39382;47.168;16.008;2023-04-03T06:55:40;6.40;88.00
53498;DHT22;39382;47.168;16.008;2023-04-03T06:58:07;6.50;87.30
53498;DHT22;39382;47.168;16.008;2023-04-03T07:00:32;6.60;86.80
53498;DHT22;39382;47.168;16.008;2023-04-03T07:02:58;6.40;85.00
53498;DHT22;39382;47.168;16.008;2023-04-03T07:05:24;6.30;84.10
53498;DHT22;39382;47.168;16.008;2023-04-03T07:07:50;6.40;84.80
53498;DHT22;39382;47.168;16.008;2023-04-03T07:10:17;6.50;85.00
53498;DHT22;39382;47.168;16.008;2023-04-03T07:12:42;6.60;85.30
53498;DHT22;39382;47.168;16.008;2023-04-03T07:15:09;6.80;82.90
53498;DHT22;39382;47.168;16.008;2023-04-03T07:17:34;6.90;84.10
53498;DHT22;39382;47.168;16.008;2023-04-03T07:20:01;7.00;81.80
53498;DHT22;39382;47.168;16.008;2023-04-03T07:22:27;7.10;81.30
53498;DHT22;39382;47.168;16.008;2023-04-03T07:24:53;7.00;81.00
53498;DHT22;39382;47.168;16.008;2023-04-03T07:27:19;6.90;81.40
53498;DHT22;39382;47.168;16.008;2023-04-03T07:29:45;6.60;80.60
53498;DHT22;39382;47.168;16.008;2023-04-03T07:32:13;6.50;79.50
53498;DHT22;39382;47.168;16.008;2023-04-03T07:34:39;6.50;81.10
53498;DHT22;39382;47.168;16.008;2023-04-03T07:37:05;6.60;80.90
53498;DHT22;39382;47.168;16.008;2023-04-03T07:39:31;6.70;81.20
53498;DHT22;39382;47.168;16.008;2023-04-03T07:41:57;6.70;81.90
53498;DHT22;39382;47.168;16.008;2023-04-03T07:44:23;6.90;81.80
53498;DHT22;39382;47.168;16.008;2023-04-03T07:46:49;7.00;81.10
53498;DHT22;39382;47.168;16.008;2023-04-03T07:49:16;7.00;82.00
53498;DHT22;39382;47.168;16.008;2023-04-03T07:51:43;6.90;81.10
53498;DHT22;39382;47.168;16.008;2023-04-03T07:54:09;7.00;82.20
53498;DHT22;39382;47.168;16.008;2023-04-03T07:56:35;6.80;80.80
53498;DHT22;39382;47.168;16.008;2023-04-03T07:59:00;6.70;80.70
53498;DHT22;39382;47.168;16.008;2023-04-03T08:01:26;6.70;81.40
53498;DHT22;39382;47.168;16.008;2023-04-03T08:03:51;6.60;83.00
53498;DHT22;39382;47.168;16.008;2023-04-03T08:06:17;6.70;83.40
53498;DHT22;39382;47.168;16.008;2023-04-03T08:08:43;6.70;81.90
53498;DHT22;39382;47.168;16.008;2023-04-03T08:11:10;6.70;80.80
53498;DHT22;39382;47.168;16.008;2023-04-03T08:13:36;6.60;80.10
53498;DHT22;39382;47.168;16.008;2023-04-03T08:16:13;6.60;80.60
53498;DHT22;39382;47.168;16.008;2023-04-03T08:18:40;6.30;78.70
53498;DHT22;39382;47.168;16.008;2023-04-03T08:21:07;6.30;79.60
53498;DHT22;39382;47.168;16.008;2023-04-03T08:23:33;6.30;80.50
53498;DHT22;39382;47.168;16.008;2023-04-03T08:25:59;6.50;80.90
53498;DHT22;39382;47.168;16.008;2023-04-03T08:28:25;6.50;79.30
53498;DHT22;39382;47.168;16.008;2023-04-03T08:30:51;6.70;78.10
53498;DHT22;39382;47.168;16.008;2023-04-03T08:33:16;7.00;77.30
53498;DHT22;39382;47.168;16.008;2023-04-03T08:35:42;7.00;74.70
53498;DHT22;39382;47.168;16.008;2023-04-03T08:38:09;6.90;73.30
53498;DHT22;39382;47.168;16.008;2023-04-03T08:40:34;6.80;75.30
53498;DHT22;39382;47.168;16.008;2023-04-03T08:45:50;7.00;80.30
53498;DHT22;39382;47.168;16.008;2023-04-03T08:48:50;6.90;79.90
53498;DHT22;39382;47.168;16.008;2023-04-03T08:51:19;6.80;79.20
53498;DHT22;39382;47.168;16.008;2023-04-03T08:54:02;6.80;80.80
53498;DHT22;39382;47.168;16.008;2023-04-03T08:56:30;6.80;81.70
53498;DHT22;39382;47.168;16.008;2023-04-03T08:59:11;6.50;82.30
53498;DHT22;39382;47.168;16.008;2023-04-03T09:01:41;6.30;83.60
53498;DHT22;39382;47.168;16.008;2023-04-03T09:04:16;6.00;84.40
53498;DHT22;39382;47.168;16.008;2023-04-03T09:06:49;5.90;85.00
53498;DHT22;39382;47.168;16.008;2023-04-03T09:15:23;5.90;86.00
53498;DHT22;39382;47.168;16.008;2023-04-03T09:17:53;5.70;83.80
53498;DHT22;39382;47.168;16.008;2023-04-03T09:23:00;5.60;83.80
53498;DHT22;39382;47.168;16.008;2023-04-03T09:25:33;5.60;83.60
53498;DHT22;39382;47.168;16.008;2023-04-03T09:28:01;5.50;84.40
53498;DHT22;39382;47.168;16.008;2023-04-03T09:30:28;5.60;84.60
53498;DHT22;39382;47.168;16.008;2023-04-03T09:32:56;5.70;83.30
53498;DHT22;39382;47.168;16.008;2023-04-03T09:35:31;5.70;78.40
53498;DHT22;39382;47.168;16.008;2023-04-03T09:38:22;5.50;76.00
53498;DHT22;39382;47.168;16.008;2023-04-03T09:40:49;5.60;75.50
53498;DHT22;39382;47.168;16.008;2023-04-03T09:43:28;5.70;76.30
53498;DHT22;39382;47.168;16.008;2023-04-03T09:45:55;5.80;77.40
53498;DHT22;39382;47.168;16.008;2023-04-03T09:48:23;5.90;78.10
53498;DHT22;39382;47.168;16.008;2023-04-03T09:53:40;5.70;77.90
53498;DHT22;39382;47.168;16.008;2023-04-03T09:56:19;5.70;78.50
53498;DHT22;39382;47.168;16.008;2023-04-03T09:58:51;5.70;78.80
53498;DHT22;39382;47.168;16.008;2023-04-03T10:04:21;6.00;77.80
53498;DHT22;39382;47.168;16.008;2023-04-03T10:06:50;5.90;76.60
53498;DHT22;39382;47.168;16.008;2023-04-03T10:09:30;5.90;76.80
53498;DHT22;39382;47.168;16.008;2023-04-03T10:12:10;6.10;75.60
53498;DHT22;39382;47.168;16.008;2023-04-03T10:14:39;6.30;76.60
53498;DHT22;39382;47.168;16.008;2023-04-03T10:17:21;6.50;76.30
53498;DHT22;39382;47.168;16.008;2023-04-03T10:25:43;6.90;77.80
53498;DHT22;39382;47.168;16.008;2023-04-03T10:28:20;6.80;71.90
53498;DHT22;39382;47.168;16.008;2023-04-03T10:31:12;7.00;73.30
53498;DHT22;39382;47.168;16.008;2023-04-03T10:34:01;7.10;71.50
53498;DHT22;39382;47.168;16.008;2023-04-03T10:39:52;7.30;69.70
53498;DHT22;39382;47.168;16.008;2023-04-03T10:44:35;6.90;70.20
53498;DHT22;39382;47.168;16.008;2023-04-03T10:47:07;6.90;69.60
53498;DHT22;39382;47.168;16.008;2023-04-03T10:57:28;6.80;71.60
53498;DHT22;39382;47.168;16.008;2023-04-03T10:59:59;6.80;70.50
53498;DHT22;39382;47.168;16.008;2023-04-03T11:03:03;7.00;72.70
53498;DHT22;39382;47.168;16.008;2023-04-03T11:07:59;7.30;70.60
53498;DHT22;39382;47.168;16.008;2023-04-03T11:10:48;7.10;69.70
53498;DHT22;39382;47.168;16.008;2023-04-03T11:16:02;7.00;70.80
53498;DHT22;39382;47.168;16.008;2023-04-03T11:18:37;6.90;73.30
53498;DHT22;39382;47.168;16.008;2023-04-03T11:21:19;7.00;72.40
53498;DHT22;39382;47.168;16.008;2023-04-03T11:23:47;7.00;71.20
53498;DHT22;39382;47.168;16.008;2023-04-03T11:26:26;7.20;71.50
53498;DHT22;39382;47.168;16.008;2023-04-03T11:28:58;7.30;71.40
53498;DHT22;39382;47.168;16.008;2023-04-03T11:36:45;8.00;69.40
53498;DHT22;39382;47.168;16.008;2023-04-03T11:39:28;8.10;67.90
53498;DHT22;39382;47.168;16.008;2023-04-03T11:41:54;8.10;68.80
53498;DHT22;39382;47.168;16.008;2023-04-03T11:44:36;8.00;65.30
53498;DHT22;39382;47.168;16.008;2023-04-03T11:47:03;7.70;63.40
53498;DHT22;39382;47.168;16.008;2023-04-03T12:08:46;7.30;66.70
53498;DHT22;39382;47.168;16.008;2023-04-03T12:13:39;7.10;65.80
53498;DHT22;39382;47.168;16.008;2023-04-03T12:33:38;7.90;65.80
53498;DHT22;39382;47.168;16.008;2023-04-03T12:35:40;7.60;64.50
53498;DHT22;39382;47.168;16.008;2023-04-03T12:41:50;7.50;65.80
53498;DHT22;39382;47.168;16.008;2023-04-03T12:44:16;7.80;67.40
53498;DHT22;39382;47.168;16.008;2023-04-03T12:46:50;7.90;64.40
53498;DHT22;39382;47.168;16.008;2023-04-03T12:51:55;7.50;62.70
53498;DHT22;39382;47.168;16.008;2023-04-03T12:54:29;7.40;62.50
53498;DHT22;39382;47.168;16.008;2023-04-03T12:57:21;7.60;63.60
53498;DHT22;39382;47.168;16.008;2023-04-03T12:59:49;7.90;63.50
53498;DHT22;39382;47.168;16.008;2023-04-03T13:02:29;8.00;62.20
53498;DHT22;39382;47.168;16.008;2023-04-03T13:05:04;8.10;60.90
53498;DHT22;39382;47.168;16.008;2023-04-03T13:07:33;7.80;61.20
53498;DHT22;39382;47.168;16.008;2023-04-03T13:10:22;7.80;62.40
53498;DHT22;39382;47.168;16.008;2023-04-03T13:12:54;7.90;62.20
53498;DHT22;39382;47.168;16.008;2023-04-03T13:15:39;7.80;61.00
53498;DHT22;39382;47.168;16.008;2023-04-03T13:18:05;7.90;60.60
53498;DHT22;39382;47.168;16.008;2023-04-03T13:20:47;8.00;60.40
53498;DHT22;39382;47.168;16.008;2023-04-03T13:23:14;8.10;59.90
53498;DHT22;39382;47.168;16.008;2023-04-03T13:25:44;8.30;60.70
53498;DHT22;39382;47.168;16.008;2023-04-03T13:28:13;8.20;58.20
53498;DHT22;39382;47.168;16.008;2023-04-03T13:30:55;8.10;59.40
53498;DHT22;39382;47.168;16.008;2023-04-03T13:33:25;8.00;58.20
53498;DHT22;39382;47.168;16.008;2023-04-03T13:36:18;8.20;62.60
53498;DHT22;39382;47.168;16.008;2023-04-03T13:38:44;8.30;58.20
53498;DHT22;39382;47.168;16.008;2023-04-03T13:41:30;8.40;60.00
53498;DHT22;39382;47.168;16.008;2023-04-03T13:43:56;8.50;59.00
53498;DHT22;39382;47.168;16.008;2023-04-03T13:46:39;8.50;58.80
53498;DHT22;39382;47.168;16.008;2023-04-03T13:49:18;8.40;59.00
53498;DHT22;39382;47.168;16.008;2023-04-03T13:51:45;8.40;58.40
53498;DHT22;39382;47.168;16.008;2023-04-03T13:54:36;8.10;57.00
53498;DHT22;39382;47.168;16.008;2023-04-03T13:57:03;8.10;56.80
53498;DHT22;39382;47.168;16.008;2023-04-03T13:59:31;7.80;56.60
53498;DHT22;39382;47.168;16.008;2023-04-03T14:04:46;8.10;61.40
53498;DHT22;39382;47.168;16.008;2023-04-03T14:07:13;8.30;56.40
53498;DHT22;39382;47.168;16.008;2023-04-03T14:09:39;8.10;56.30
53498;DHT22;39382;47.168;16.008;2023-04-03T14:12:18;7.50;56.00
53498;DHT22;39382;47.168;16.008;2023-04-03T14:14:45;7.40;57.60
53498;DHT22;39382;47.168;16.008;2023-04-03T14:17:21;7.40;57.00
53498;DHT22;39382;47.168;16.008;2023-04-03T14:19:48;7.40;58.10
53498;DHT22;39382;47.168;16.008;2023-04-03T14:22:20;7.40;58.10
53498;DHT22;39382;47.168;16.008;2023-04-03T14:24:48;7.30;57.00
53498;DHT22;39382;47.168;16.008;2023-04-03T14:27:34;7.40;57.40
53498;DHT22;39382;47.168;16.008;2023-04-03T14:30:00;7.40;58.00
53498;DHT22;39382;47.168;16.008;2023-04-03T14:32:28;7.40;56.60
53498;DHT22;39382;47.168;16.008;2023-04-03T14:34:55;7.40;55.60
53498;DHT22;39382;47.168;16.008;2023-04-03T14:37:24;7.10;54.90
53498;DHT22;39382;47.168;16.008;2023-04-03T14:39:51;7.10;56.40
53498;DHT22;39382;47.168;16.008;2023-04-03T14:42:28;7.10;56.60
53498;DHT22;39382;47.168;16.008;2023-04-03T14:44:54;7.30;57.60
53498;DHT22;39382;47.168;16.008;2023-04-03T14:47:23;7.30;57.00
53498;DHT22;39382;47.168;16.008;2023-04-03T14:49:50;7.30;56.30
53498;DHT22;39382;47.168;16.008;2023-04-03T14:52:20;7.20;55.50
53498;DHT22;39382;47.168;16.008;2023-04-03T14:54:47;6.90;55.60
53498;DHT22;39382;47.168;16.008;2023-04-03T14:57:14;6.80;56.40
53498;DHT22;39382;47.168;16.008;2023-04-03T14:59:41;6.80;56.50
53498;DHT22;39382;47.168;16.008;2023-04-03T15:04:54;7.00;57.40
53498;DHT22;39382;47.168;16.008;2023-04-03T15:07:20;6.70;55.70
53498;DHT22;39382;47.168;16.008;2023-04-03T15:09:46;6.70;56.10
53498;DHT22;39382;47.168;16.008;2023-04-03T15:12:12;6.70;56.30
53498;DHT22;39382;47.168;16.008;2023-04-03T15:14:38;6.90;56.30
53498;DHT22;39382;47.168;16.008;2023-04-03T15:17:05;6.80;55.50
53498;DHT22;39382;47.168;16.008;2023-04-03T15:19:38;6.80;55.70
53498;DHT22;39382;47.168;16.008;2023-04-03T15:22:04;6.60;55.50
53498;DHT22;39382;47.168;16.008;2023-04-03T15:24:30;6.60;56.30
53498;DHT22;39382;47.168;16.008;2023-04-03T15:26:56;6.50;57.70
53498;DHT22;39382;47.168;16.008;2023-04-03T15:29:21;6.40;55.70
53498;DHT22;39382;47.168;16.008;2023-04-03T15:31:47;6.30;55.50
53498;DHT22;39382;47.168;16.008;2023-04-03T15:34:15;6.20;55.00
53498;DHT22;39382;47.168;16.008;2023-04-03T15:36:41;6.20;55.30
53498;DHT22;39382;47.168;16.008;2023-04-03T15:39:07;6.60;62.00
53498;DHT22;39382;47.168;16.008;2023-04-03T15:41:32;6.50;55.20
53498;DHT22;39382;47.168;16.008;2023-04-03T15:43:58;6.30;54.60
53498;DHT22;39382;47.168;16.008;2023-04-03T15:46:23;6.20;54.10
53498;DHT22;39382;47.168;16.008;2023-04-03T15:48:49;6.10;53.50
53498;DHT22;39382;47.168;16.008;2023-04-03T15:51:15;6.10;53.50
53498;DHT22;39382;47.168;16.008;2023-04-03T15:53:40;6.10;54.40
53498;DHT22;39382;47.168;16.008;2023-04-03T15:56:07;6.10;54.00
53498;DHT22;39382;47.168;16.008;2023-04-03T15:58:35;6.10;53.80
53498;DHT22;39382;47.168;16.008;2023-04-03T16:01:00;5.90;54.40
53498;DHT22;39382;47.168;16.008;2023-04-03T16:03:26;5.90;54.00
53498;DHT22;39382;47.168;16.008;2023-04-03T16:05:52;5.80;54.70
53498;DHT22;39382;47.168;16.008;2023-04-03T16:08:18;5.80;55.30
53498;DHT22;39382;47.168;16.008;2023-04-03T16:10:44;6.00;61.10
53498;DHT22;39382;47.168;16.008;2023-04-03T16:13:11;6.20;55.50
53498;DHT22;39382;47.168;16.008;2023-04-03T16:15:37;5.90;53.90
53498;DHT22;39382;47.168;16.008;2023-04-03T16:18:03;5.70;54.60
53498;DHT22;39382;47.168;16.008;2023-04-03T16:20:29;5.70;55.30
53498;DHT22;39382;47.168;16.008;2023-04-03T16:22:57;5.70;55.90
53498;DHT22;39382;47.168;16.008;2023-04-03T16:25:24;5.60;55.80
53498;DHT22;39382;47.168;16.008;2023-04-03T16:27:50;5.60;55.70
53498;DHT22;39382;47.168;16.008;2023-04-03T16:30:16;5.50;54.70
53498;DHT22;39382;47.168;16.008;2023-04-03T16:32:42;5.40;54.80
53498;DHT22;39382;47.168;16.008;2023-04-03T16:35:09;5.30;54.40
53498;DHT22;39382;47.168;16.008;2023-04-03T16:37:36;5.10;54.60
53498;DHT22;39382;47.168;16.008;2023-04-03T16:40:03;5.10;54.50
53498;DHT22;39382;47.168;16.008;2023-04-03T16:42:30;5.10;54.70
53498;DHT22;39382;47.168;16.008;2023-04-03T16:44:56;5.00;54.40
53498;DHT22;39382;47.168;16.008;2023-04-03T16:47:21;4.90;54.70
53498;DHT22;39382;47.168;16.008;2023-04-03T16:49:47;4.90;55.00
53498;DHT22;39382;47.168;16.008;2023-04-03T16:52:13;4.80;55.60
53498;DHT22;39382;47.168;16.008;2023-04-03T16:54:39;4.80;55.80
53498;DHT22;39382;47.168;16.008;2023-04-03T16:57:05;4.70;55.30
53498;DHT22;39382;47.168;16.008;2023-04-03T16:59:31;4.70;56.10
53498;DHT22;39382;47.168;16.008;2023-04-03T17:01:56;4.60;56.30
53498;DHT22;39382;47.168;16.008;2023-04-03T17:04:22;4.50;56.60
53498;DHT22;39382;47.168;16.008;2023-04-03T17:06:48;4.50;57.00
53498;DHT22;39382;47.168;16.008;2023-04-03T17:09:13;4.40;57.70
53498;DHT22;39382;47.168;16.008;2023-04-03T17:11:39;4.40;56.50
53498;DHT22;39382;47.168;16.008;2023-04-03T17:14:05;4.40;56.90
53498;DHT22;39382;47.168;16.008;2023-04-03T17:16:33;4.30;56.80
53498;DHT22;39382;47.168;16.008;2023-04-03T17:18:59;4.20;56.30
53498;DHT22;39382;47.168;16.008;2023-04-03T17:21:26;4.20;56.30